sensor_id;sensor_type;location;lat;lon;timestamp;P1;durP1;ratioP1;P2;durP2;ratioP2
353;SDS011;165;53.592;10.044;2022-09-21T00:01:22;6.20;;;4.87;;
353;SDS011;165;53.592;10.044;2022-09-21T00:03:56;6.10;;;4.73;;
353;SDS011;165;53.592;10.044;2022-09-21T00:06:24;7.67;;;4.93;;
353;SDS011;165;53.592;10.044;2022-09-21T00:08:51;12.10;;;5.90;;
353;SDS011;165;53.592;10.044;2022-09-21T00:11:19;9.03;;;4.20;;
353;SDS011;165;53.592;10.044;2022-09-21T00:13:47;6.40;;;4.50;;
353;SDS011;165;53.592;10.044;2022-09-21T00:16:17;8.67;;;4.57;;
353;SDS011;165;53.592;10.044;2022-09-21T00:18:42;8.53;;;4.60;;
353;SDS011;165;53.592;10.044;2022-09-21T00:21:10;8.23;;;4.87;;
353;SDS011;165;53.592;10.044;2022-09-21T00:23:37;10.43;;;4.67;;
353;SDS011;165;53.592;10.044;2022-09-21T00:26:04;16.17;;;5.60;;
353;SDS011;165;53.592;10.044;2022-09-21T00:28:34;6.07;;;3.90;;
353;SDS011;165;53.592;10.044;2022-09-21T00:31:00;8.77;;;4.23;;
353;SDS011;165;53.592;10.044;2022-09-21T00:33:30;7.43;;;4.50;;
353;SDS011;165;53.592;10.044;2022-09-21T00:36:00;9.27;;;4.77;;
353;SDS011;165;53.592;10.044;2022-09-21T00:38:34;6.83;;;4.40;;
353;SDS011;165;53.592;10.044;2022-09-21T00:41:00;9.40;;;5.47;;
353;SDS011;165;53.592;10.044;2022-09-21T00:43:25;9.10;;;4.80;;
353;SDS011;165;53.592;10.044;2022-09-21T00:45:55;5.20;;;4.40;;
353;SDS011;165;53.592;10.044;2022-09-21T00:48:25;7.80;;;4.83;;
353;SDS011;165;53.592;10.044;2022-09-21T00:50:51;8.20;;;4.33;;
353;SDS011;165;53.592;10.044;2022-09-21T00:53:20;11.23;;;5.30;;
353;SDS011;165;53.592;10.044;2022-09-21T00:55:48;8.77;;;5.73;;
353;SDS011;165;53.592;10.044;2022-09-21T00:58:19;12.87;;;5.53;;
353;SDS011;165;53.592;10.044;2022-09-21T01:00:50;7.33;;;4.87;;
353;SDS011;165;53.592;10.044;2022-09-21T01:03:16;8.20;;;4.53;;
353;SDS011;165;53.592;10.044;2022-09-21T01:05:41;10.00;;;5.73;;
353;SDS011;165;53.592;10.044;2022-09-21T01:08:08;8.67;;;5.20;;
353;SDS011;165;53.592;10.044;2022-09-21T01:16:34;6.10;;;4.27;;
353;SDS011;165;53.592;10.044;2022-09-21T01:24:51;7.70;;;5.20;;
353;SDS011;165;53.592;10.044;2022-09-21T01:30:15;7.00;;;5.00;;
353;SDS011;165;53.592;10.044;2022-09-21T01:32:44;6.97;;;4.30;;
353;SDS011;165;53.592;10.044;2022-09-21T01:35:16;13.00;;;7.00;;
353;SDS011;165;53.592;10.044;2022-09-21T01:37:46;6.80;;;5.37;;
353;SDS011;165;53.592;10.044;2022-09-21T01:40:22;12.07;;;5.40;;
353;SDS011;165;53.592;10.044;2022-09-21T01:42:53;6.03;;;4.50;;
353;SDS011;165;53.592;10.044;2022-09-21T01:45:22;9.60;;;5.17;;
353;SDS011;165;53.592;10.044;2022-09-21T01:47:53;11.87;;;4.50;;
353;SDS011;165;53.592;10.044;2022-09-21T01:50:23;8.77;;;4.27;;
353;SDS011;165;53.592;10.044;2022-09-21T01:52:56;10.10;;;4.80;;
353;SDS011;165;53.592;10.044;2022-09-21T01:55:38;12.40;;;4.93;;
353;SDS011;165;53.592;10.044;2022-09-21T01:58:10;7.10;;;4.80;;
353;SDS011;165;53.592;10.044;2022-09-21T02:00:43;9.13;;;4.80;;
353;SDS011;165;53.592;10.044;2022-09-21T02:05:46;7.53;;;4.47;;
353;SDS011;165;53.592;10.044;2022-09-21T02:08:11;10.03;;;4.87;;
353;SDS011;165;53.592;10.044;2022-09-21T02:10:44;5.57;;;4.93;;
353;SDS011;165;53.592;10.044;2022-09-21T02:13:13;5.90;;;4.70;;
353;SDS011;165;53.592;10.044;2022-09-21T02:21:37;9.80;;;5.20;;
353;SDS011;165;53.592;10.044;2022-09-21T02:26:44;7.17;;;5.10;;
353;SDS011;165;53.592;10.044;2022-09-21T02:32:01;11.83;;;6.03;;
353;SDS011;165;53.592;10.044;2022-09-21T02:34:42;10.30;;;6.40;;
353;SDS011;165;53.592;10.044;2022-09-21T02:37:21;7.87;;;5.80;;
353;SDS011;165;53.592;10.044;2022-09-21T02:39:58;6.53;;;6.07;;
353;SDS011;165;53.592;10.044;2022-09-21T02:42:49;13.03;;;6.57;;
353;SDS011;165;53.592;10.044;2022-09-21T02:45:27;12.43;;;7.17;;
353;SDS011;165;53.592;10.044;2022-09-21T02:47:59;15.03;;;7.67;;
353;SDS011;165;53.592;10.044;2022-09-21T02:53:05;12.37;;;8.33;;
353;SDS011;165;53.592;10.044;2022-09-21T02:55:32;13.50;;;8.13;;
353;SDS011;165;53.592;10.044;2022-09-21T02:57:59;9.47;;;7.47;;
353;SDS011;165;53.592;10.044;2022-09-21T03:00:30;10.50;;;8.60;;
353;SDS011;165;53.592;10.044;2022-09-21T03:02:58;8.40;;;7.30;;
353;SDS011;165;53.592;10.044;2022-09-21T03:05:23;9.77;;;7.63;;
353;SDS011;165;53.592;10.044;2022-09-21T03:07:50;11.10;;;8.20;;
353;SDS011;165;53.592;10.044;2022-09-21T03:10:15;10.13;;;8.60;;
353;SDS011;165;53.592;10.044;2022-09-21T03:12:42;9.53;;;7.37;;
353;SDS011;165;53.592;10.044;2022-09-21T03:15:08;14.17;;;7.87;;
353;SDS011;165;53.592;10.044;2022-09-21T03:17:34;12.57;;;8.03;;
353;SDS011;165;53.592;10.044;2022-09-21T03:19:59;14.60;;;7.70;;
353;SDS011;165;53.592;10.044;2022-09-21T03:22:26;9.30;;;6.70;;
353;SDS011;165;53.592;10.044;2022-09-21T03:24:51;10.23;;;7.40;;
353;SDS011;165;53.592;10.044;2022-09-21T03:27:21;14.13;;;7.90;;
353;SDS011;165;53.592;10.044;2022-09-21T03:29:47;10.60;;;7.60;;
353;SDS011;165;53.592;10.044;2022-09-21T03:32:13;10.10;;;6.57;;
353;SDS011;165;53.592;10.044;2022-09-21T03:34:39;10.20;;;6.50;;
353;SDS011;165;53.592;10.044;2022-09-21T03:37:05;8.70;;;6.93;;
353;SDS011;165;53.592;10.044;2022-09-21T03:39:32;9.33;;;6.67;;
353;SDS011;165;53.592;10.044;2022-09-21T03:41:59;10.47;;;7.30;;
353;SDS011;165;53.592;10.044;2022-09-21T03:44:26;13.37;;;7.53;;
353;SDS011;165;53.592;10.044;2022-09-21T03:46:52;8.87;;;7.43;;
353;SDS011;165;53.592;10.044;2022-09-21T03:49:18;9.87;;;7.50;;
353;SDS011;165;53.592;10.044;2022-09-21T03:51:44;10.17;;;7.00;;
353;SDS011;165;53.592;10.044;2022-09-21T03:54:10;8.50;;;7.40;;
353;SDS011;165;53.592;10.044;2022-09-21T03:56:37;9.27;;;7.03;;
353;SDS011;165;53.592;10.044;2022-09-21T03:59:02;12.60;;;7.60;;
353;SDS011;165;53.592;10.044;2022-09-21T04:01:28;12.73;;;7.93;;
353;SDS011;165;53.592;10.044;2022-09-21T04:03:54;24.77;;;9.50;;
353;SDS011;165;53.592;10.044;2022-09-21T04:06:19;15.63;;;9.00;;
353;SDS011;165;53.592;10.044;2022-09-21T04:08:45;11.17;;;8.40;;
353;SDS011;165;53.592;10.044;2022-09-21T04:11:13;17.07;;;8.00;;
353;SDS011;165;53.592;10.044;2022-09-21T04:13:43;14.73;;;8.13;;
353;SDS011;165;53.592;10.044;2022-09-21T04:16:12;10.80;;;7.73;;
353;SDS011;165;53.592;10.044;2022-09-21T04:18:38;9.50;;;7.40;;
353;SDS011;165;53.592;10.044;2022-09-21T04:21:04;9.30;;;7.17;;
353;SDS011;165;53.592;10.044;2022-09-21T04:23:30;7.90;;;6.60;;
353;SDS011;165;53.592;10.044;2022-09-21T04:25:55;9.20;;;6.77;;
353;SDS011;165;53.592;10.044;2022-09-21T04:28:21;10.43;;;6.87;;
353;SDS011;165;53.592;10.044;2022-09-21T04:30:51;9.17;;;7.57;;
353;SDS011;165;53.592;10.044;2022-09-21T04:33:18;10.17;;;7.00;;
353;SDS011;165;53.592;10.044;2022-09-21T04:35:44;7.93;;;7.43;;
353;SDS011;165;53.592;10.044;2022-09-21T04:38:09;8.73;;;7.63;;
353;SDS011;165;53.592;10.044;2022-09-21T04:40:35;8.50;;;6.80;;
353;SDS011;165;53.592;10.044;2022-09-21T04:43:04;10.10;;;7.77;;
353;SDS011;165;53.592;10.044;2022-09-21T04:45:30;7.63;;;7.03;;
353;SDS011;165;53.592;10.044;2022-09-21T04:47:56;7.30;;;6.80;;
353;SDS011;165;53.592;10.044;2022-09-21T04:50:21;7.97;;;6.63;;
353;SDS011;165;53.592;10.044;2022-09-21T04:52:47;9.13;;;7.47;;
353;SDS011;165;53.592;10.044;2022-09-21T04:55:13;8.00;;;6.87;;
353;SDS011;165;53.592;10.044;2022-09-21T04:57:38;8.63;;;6.87;;
353;SDS011;165;53.592;10.044;2022-09-21T05:00:04;8.87;;;7.47;;
353;SDS011;165;53.592;10.044;2022-09-21T05:02:30;7.93;;;7.53;;
353;SDS011;165;53.592;10.044;2022-09-21T05:04:59;11.63;;;9.20;;
353;SDS011;165;53.592;10.044;2022-09-21T05:07:24;10.67;;;7.93;;
353;SDS011;165;53.592;10.044;2022-09-21T05:09:51;12.80;;;8.40;;
353;SDS011;165;53.592;10.044;2022-09-21T05:12:29;9.77;;;8.57;;
353;SDS011;165;53.592;10.044;2022-09-21T05:14:56;14.90;;;8.67;;
353;SDS011;165;53.592;10.044;2022-09-21T05:17:21;11.10;;;8.43;;
353;SDS011;165;53.592;10.044;2022-09-21T05:19:48;10.57;;;8.40;;
353;SDS011;165;53.592;10.044;2022-09-21T05:22:14;11.20;;;9.30;;
353;SDS011;165;53.592;10.044;2022-09-21T05:24:42;8.70;;;8.17;;
353;SDS011;165;53.592;10.044;2022-09-21T05:27:08;8.77;;;8.10;;
353;SDS011;165;53.592;10.044;2022-09-21T05:29:34;10.10;;;7.63;;
353;SDS011;165;53.592;10.044;2022-09-21T05:40:20;35.13;;;13.60;;
353;SDS011;165;53.592;10.044;2022-09-21T05:42:49;15.90;;;9.70;;
353;SDS011;165;53.592;10.044;2022-09-21T05:45:16;26.10;;;10.17;;
353;SDS011;165;53.592;10.044;2022-09-21T05:53:19;12.03;;;10.33;;
353;SDS011;165;53.592;10.044;2022-09-21T05:55:59;10.80;;;8.90;;
353;SDS011;165;53.592;10.044;2022-09-21T05:58:36;11.70;;;9.50;;
353;SDS011;165;53.592;10.044;2022-09-21T06:01:19;12.50;;;8.77;;
353;SDS011;165;53.592;10.044;2022-09-21T06:03:55;12.30;;;10.40;;
353;SDS011;165;53.592;10.044;2022-09-21T06:06:23;17.60;;;9.40;;
353;SDS011;165;53.592;10.044;2022-09-21T06:08:48;18.87;;;6.50;;
353;SDS011;165;53.592;10.044;2022-09-21T06:11:14;6.40;;;5.30;;
353;SDS011;165;53.592;10.044;2022-09-21T06:13:39;7.93;;;6.40;;
353;SDS011;165;53.592;10.044;2022-09-21T06:16:05;6.03;;;5.13;;
353;SDS011;165;53.592;10.044;2022-09-21T06:18:35;5.70;;;5.40;;
353;SDS011;165;53.592;10.044;2022-09-21T06:21:04;5.33;;;4.40;;
353;SDS011;165;53.592;10.044;2022-09-21T06:23:31;4.80;;;4.50;;
353;SDS011;165;53.592;10.044;2022-09-21T06:25:57;8.60;;;6.77;;
353;SDS011;165;53.592;10.044;2022-09-21T06:28:22;6.60;;;4.63;;
353;SDS011;165;53.592;10.044;2022-09-21T06:30:51;8.73;;;7.27;;
353;SDS011;165;53.592;10.044;2022-09-21T06:33:18;5.40;;;5.00;;
353;SDS011;165;53.592;10.044;2022-09-21T06:35:51;5.07;;;4.77;;
353;SDS011;165;53.592;10.044;2022-09-21T06:38:21;7.57;;;5.40;;
353;SDS011;165;53.592;10.044;2022-09-21T06:40:48;6.00;;;4.90;;
353;SDS011;165;53.592;10.044;2022-09-21T06:43:14;6.50;;;5.67;;
353;SDS011;165;53.592;10.044;2022-09-21T06:45:40;6.67;;;5.87;;
353;SDS011;165;53.592;10.044;2022-09-21T06:48:05;9.83;;;8.40;;
353;SDS011;165;53.592;10.044;2022-09-21T06:50:31;8.10;;;6.63;;
353;SDS011;165;53.592;10.044;2022-09-21T06:53:00;6.40;;;5.90;;
353;SDS011;165;53.592;10.044;2022-09-21T06:55:31;8.20;;;6.60;;
353;SDS011;165;53.592;10.044;2022-09-21T06:58:14;6.80;;;6.30;;
353;SDS011;165;53.592;10.044;2022-09-21T07:00:40;9.37;;;6.77;;
353;SDS011;165;53.592;10.044;2022-09-21T07:03:08;9.10;;;6.60;;
353;SDS011;165;53.592;10.044;2022-09-21T07:05:49;13.70;;;6.83;;
353;SDS011;165;53.592;10.044;2022-09-21T07:08:15;8.53;;;6.57;;
353;SDS011;165;53.592;10.044;2022-09-21T07:10:44;10.83;;;6.97;;
353;SDS011;165;53.592;10.044;2022-09-21T07:13:09;7.30;;;6.90;;
353;SDS011;165;53.592;10.044;2022-09-21T07:15:35;6.87;;;6.30;;
353;SDS011;165;53.592;10.044;2022-09-21T07:18:08;7.20;;;6.13;;
353;SDS011;165;53.592;10.044;2022-09-21T07:20:38;8.60;;;6.93;;
353;SDS011;165;53.592;10.044;2022-09-21T07:23:08;6.17;;;5.87;;
353;SDS011;165;53.592;10.044;2022-09-21T07:25:39;10.40;;;8.20;;
353;SDS011;165;53.592;10.044;2022-09-21T07:28:10;6.90;;;6.37;;
353;SDS011;165;53.592;10.044;2022-09-21T07:30:37;7.13;;;6.73;;
353;SDS011;165;53.592;10.044;2022-09-21T07:33:04;6.50;;;6.10;;
353;SDS011;165;53.592;10.044;2022-09-21T07:35:30;10.23;;;6.37;;
353;SDS011;165;53.592;10.044;2022-09-21T07:38:03;6.77;;;6.00;;
353;SDS011;165;53.592;10.044;2022-09-21T07:40:30;8.60;;;5.80;;
353;SDS011;165;53.592;10.044;2022-09-21T07:42:57;8.17;;;6.03;;
353;SDS011;165;53.592;10.044;2022-09-21T07:45:23;8.13;;;6.00;;
353;SDS011;165;53.592;10.044;2022-09-21T07:47:50;7.70;;;5.90;;
353;SDS011;165;53.592;10.044;2022-09-21T07:50:18;6.72;;;6.35;;
353;SDS011;165;53.592;10.044;2022-09-21T07:52:44;8.60;;;6.40;;
353;SDS011;165;53.592;10.044;2022-09-21T07:55:10;8.60;;;6.53;;
353;SDS011;165;53.592;10.044;2022-09-21T07:57:36;7.07;;;6.70;;
353;SDS011;165;53.592;10.044;2022-09-21T08:00:20;6.90;;;6.27;;
353;SDS011;165;53.592;10.044;2022-09-21T08:10:32;9.80;;;9.30;;
353;SDS011;165;53.592;10.044;2022-09-21T08:12:59;6.07;;;5.83;;
353;SDS011;165;53.592;10.044;2022-09-21T08:15:24;6.90;;;5.33;;
353;SDS011;165;53.592;10.044;2022-09-21T08:17:51;6.93;;;5.60;;
353;SDS011;165;53.592;10.044;2022-09-21T08:20:17;7.33;;;5.33;;
353;SDS011;165;53.592;10.044;2022-09-21T08:22:43;6.53;;;5.50;;
353;SDS011;165;53.592;10.044;2022-09-21T08:25:08;4.70;;;4.40;;
353;SDS011;165;53.592;10.044;2022-09-21T08:27:37;7.30;;;6.70;;
353;SDS011;165;53.592;10.044;2022-09-21T08:30:13;5.70;;;5.40;;
353;SDS011;165;53.592;10.044;2022-09-21T08:32:39;6.07;;;4.90;;
353;SDS011;165;53.592;10.044;2022-09-21T08:35:05;5.77;;;4.43;;
353;SDS011;165;53.592;10.044;2022-09-21T08:37:32;7.93;;;5.53;;
353;SDS011;165;53.592;10.044;2022-09-21T08:39:59;5.70;;;4.20;;
353;SDS011;165;53.592;10.044;2022-09-21T08:45:03;5.70;;;5.40;;
353;SDS011;165;53.592;10.044;2022-09-21T08:47:40;5.40;;;4.93;;
353;SDS011;165;53.592;10.044;2022-09-21T08:50:29;6.13;;;5.80;;
353;SDS011;165;53.592;10.044;2022-09-21T08:53:06;8.30;;;4.83;;
353;SDS011;165;53.592;10.044;2022-09-21T08:55:59;7.90;;;6.27;;
353;SDS011;165;53.592;10.044;2022-09-21T08:58:26;6.83;;;3.90;;
353;SDS011;165;53.592;10.044;2022-09-21T09:01:07;3.67;;;2.60;;
353;SDS011;165;53.592;10.044;2022-09-21T09:04:00;6.57;;;2.67;;
353;SDS011;165;53.592;10.044;2022-09-21T09:09:38;5.13;;;3.80;;
353;SDS011;165;53.592;10.044;2022-09-21T09:18:06;3.77;;;1.97;;
353;SDS011;165;53.592;10.044;2022-09-21T09:20:38;4.20;;;2.03;;
353;SDS011;165;53.592;10.044;2022-09-21T09:23:19;4.20;;;1.80;;
353;SDS011;165;53.592;10.044;2022-09-21T09:25:50;2.60;;;2.03;;
353;SDS011;165;53.592;10.044;2022-09-21T09:31:07;3.50;;;2.60;;
353;SDS011;165;53.592;10.044;2022-09-21T09:33:45;5.13;;;2.73;;
353;SDS011;165;53.592;10.044;2022-09-21T09:36:14;3.00;;;2.23;;
353;SDS011;165;53.592;10.044;2022-09-21T09:46:58;3.60;;;2.70;;
353;SDS011;165;53.592;10.044;2022-09-21T09:49:39;3.77;;;2.40;;
353;SDS011;165;53.592;10.044;2022-09-21T09:55:16;3.47;;;2.53;;
353;SDS011;165;53.592;10.044;2022-09-21T09:57:48;6.50;;;3.63;;
353;SDS011;165;53.592;10.044;2022-09-21T10:00:15;4.30;;;2.73;;
353;SDS011;165;53.592;10.044;2022-09-21T10:05:23;6.57;;;2.40;;
353;SDS011;165;53.592;10.044;2022-09-21T10:07:56;3.10;;;2.10;;
353;SDS011;165;53.592;10.044;2022-09-21T10:13:26;2.70;;;1.80;;
353;SDS011;165;53.592;10.044;2022-09-21T10:15:57;2.63;;;1.60;;
353;SDS011;165;53.592;10.044;2022-09-21T10:18:44;1.40;;;1.03;;
353;SDS011;165;53.592;10.044;2022-09-21T10:21:22;3.47;;;2.60;;
353;SDS011;165;53.592;10.044;2022-09-21T10:23:51;2.17;;;1.60;;
353;SDS011;165;53.592;10.044;2022-09-21T10:26:33;5.17;;;3.53;;
353;SDS011;165;53.592;10.044;2022-09-21T10:29:18;4.50;;;2.80;;
353;SDS011;165;53.592;10.044;2022-09-21T10:32:00;6.63;;;4.07;;
353;SDS011;165;53.592;10.044;2022-09-21T10:34:29;2.67;;;2.17;;
353;SDS011;165;53.592;10.044;2022-09-21T10:36:57;2.03;;;1.50;;
353;SDS011;165;53.592;10.044;2022-09-21T10:39:25;4.47;;;1.50;;
353;SDS011;165;53.592;10.044;2022-09-21T10:44:33;2.80;;;1.30;;
353;SDS011;165;53.592;10.044;2022-09-21T10:47:18;3.60;;;1.50;;
353;SDS011;165;53.592;10.044;2022-09-21T10:49:53;3.17;;;1.30;;
353;SDS011;165;53.592;10.044;2022-09-21T10:52:22;2.63;;;1.13;;
353;SDS011;165;53.592;10.044;2022-09-21T10:54:57;6.37;;;6.00;;
353;SDS011;165;53.592;10.044;2022-09-21T10:57:23;2.93;;;1.37;;
353;SDS011;165;53.592;10.044;2022-09-21T10:59:51;3.20;;;2.20;;
353;SDS011;165;53.592;10.044;2022-09-21T11:02:30;1.70;;;1.03;;
353;SDS011;165;53.592;10.044;2022-09-21T11:05:02;3.33;;;1.20;;
353;SDS011;165;53.592;10.044;2022-09-21T11:07:52;1.57;;;1.17;;
353;SDS011;165;53.592;10.044;2022-09-21T11:10:48;2.40;;;1.80;;
353;SDS011;165;53.592;10.044;2022-09-21T11:13:38;1.97;;;0.80;;
353;SDS011;165;53.592;10.044;2022-09-21T11:16:35;1.60;;;0.70;;
353;SDS011;165;53.592;10.044;2022-09-21T11:19:25;2.83;;;1.17;;
353;SDS011;165;53.592;10.044;2022-09-21T11:22:05;1.80;;;1.00;;
353;SDS011;165;53.592;10.044;2022-09-21T11:27:11;13.33;;;10.23;;
353;SDS011;165;53.592;10.044;2022-09-21T11:30:02;1.60;;;1.10;;
353;SDS011;165;53.592;10.044;2022-09-21T11:41:03;1.80;;;1.43;;
353;SDS011;165;53.592;10.044;2022-09-21T11:49:26;2.30;;;1.37;;
353;SDS011;165;53.592;10.044;2022-09-21T11:58:07;2.03;;;1.43;;
353;SDS011;165;53.592;10.044;2022-09-21T12:01:01;2.20;;;1.13;;
353;SDS011;165;53.592;10.044;2022-09-21T12:03:39;4.10;;;1.43;;
353;SDS011;165;53.592;10.044;2022-09-21T12:06:16;4.00;;;1.87;;
353;SDS011;165;53.592;10.044;2022-09-21T12:11:43;1.83;;;0.83;;
353;SDS011;165;53.592;10.044;2022-09-21T12:22:39;1.83;;;0.93;;
353;SDS011;165;53.592;10.044;2022-09-21T12:25:12;1.60;;;1.07;;
353;SDS011;165;53.592;10.044;2022-09-21T12:30:45;1.20;;;0.70;;
353;SDS011;165;53.592;10.044;2022-09-21T12:36:01;3.37;;;1.20;;
353;SDS011;165;53.592;10.044;2022-09-21T12:38:33;2.80;;;1.00;;
353;SDS011;165;53.592;10.044;2022-09-21T12:41:29;1.67;;;1.00;;
353;SDS011;165;53.592;10.044;2022-09-21T12:44:38;3.33;;;2.37;;
353;SDS011;165;53.592;10.044;2022-09-21T12:50:30;9.87;;;8.67;;
353;SDS011;165;53.592;10.044;2022-09-21T12:53:11;8.50;;;2.33;;
353;SDS011;165;53.592;10.044;2022-09-21T12:55:52;26.17;;;3.63;;
353;SDS011;165;53.592;10.044;2022-09-21T12:58:50;2.07;;;1.23;;
353;SDS011;165;53.592;10.044;2022-09-21T13:09:39;3.70;;;1.40;;
353;SDS011;165;53.592;10.044;2022-09-21T13:12:08;4.50;;;2.70;;
353;SDS011;165;53.592;10.044;2022-09-21T13:14:44;31.83;;;24.23;;
353;SDS011;165;53.592;10.044;2022-09-21T13:17:20;2.70;;;1.77;;
353;SDS011;165;53.592;10.044;2022-09-21T13:20:01;6.47;;;1.90;;
353;SDS011;165;53.592;10.044;2022-09-21T13:22:30;1.10;;;0.67;;
353;SDS011;165;53.592;10.044;2022-09-21T13:25:20;1.63;;;1.00;;
353;SDS011;165;53.592;10.044;2022-09-21T13:30:43;3.30;;;1.13;;
353;SDS011;165;53.592;10.044;2022-09-21T13:35:51;1.80;;;1.00;;
353;SDS011;165;53.592;10.044;2022-09-21T13:38:29;3.37;;;2.03;;
353;SDS011;165;53.592;10.044;2022-09-21T13:49:19;2.50;;;1.40;;
353;SDS011;165;53.592;10.044;2022-09-21T13:52:03;2.73;;;1.40;;
353;SDS011;165;53.592;10.044;2022-09-21T13:54:45;5.13;;;2.10;;
353;SDS011;165;53.592;10.044;2022-09-21T14:00:02;4.13;;;2.97;;
353;SDS011;165;53.592;10.044;2022-09-21T14:10:57;2.10;;;1.30;;
353;SDS011;165;53.592;10.044;2022-09-21T14:13:31;3.10;;;2.10;;
353;SDS011;165;53.592;10.044;2022-09-21T14:19:01;4.03;;;1.60;;
353;SDS011;165;53.592;10.044;2022-09-21T14:24:40;2.17;;;1.47;;
353;SDS011;165;53.592;10.044;2022-09-21T14:27:15;6.77;;;3.70;;
353;SDS011;165;53.592;10.044;2022-09-21T14:29:58;2.33;;;1.40;;
353;SDS011;165;53.592;10.044;2022-09-21T14:32:28;5.23;;;1.97;;
353;SDS011;165;53.592;10.044;2022-09-21T14:35:10;3.00;;;1.77;;
353;SDS011;165;53.592;10.044;2022-09-21T14:37:40;2.57;;;1.80;;
353;SDS011;165;53.592;10.044;2022-09-21T14:40:27;2.47;;;1.33;;
353;SDS011;165;53.592;10.044;2022-09-21T14:42:55;2.33;;;1.97;;
353;SDS011;165;53.592;10.044;2022-09-21T14:45:27;5.03;;;4.23;;
353;SDS011;165;53.592;10.044;2022-09-21T15:02:15;3.40;;;2.10;;
353;SDS011;165;53.592;10.044;2022-09-21T15:04:46;4.23;;;2.70;;
353;SDS011;165;53.592;10.044;2022-09-21T15:07:47;4.97;;;3.10;;
353;SDS011;165;53.592;10.044;2022-09-21T15:16:21;3.93;;;2.97;;
353;SDS011;165;53.592;10.044;2022-09-21T15:19:19;4.03;;;3.03;;
353;SDS011;165;53.592;10.044;2022-09-21T15:22:08;9.33;;;7.03;;
353;SDS011;165;53.592;10.044;2022-09-21T15:24:34;2.83;;;2.00;;
353;SDS011;165;53.592;10.044;2022-09-21T15:27:04;2.80;;;2.30;;
353;SDS011;165;53.592;10.044;2022-09-21T15:29:34;6.63;;;5.03;;
353;SDS011;165;53.592;10.044;2022-09-21T15:32:01;4.20;;;2.70;;
353;SDS011;165;53.592;10.044;2022-09-21T15:34:29;4.73;;;3.73;;
353;SDS011;165;53.592;10.044;2022-09-21T15:37:04;3.30;;;2.67;;
353;SDS011;165;53.592;10.044;2022-09-21T15:39:40;1.70;;;1.20;;
353;SDS011;165;53.592;10.044;2022-09-21T15:44:35;4.03;;;2.40;;
353;SDS011;165;53.592;10.044;2022-09-21T15:47:01;11.70;;;10.10;;
353;SDS011;165;53.592;10.044;2022-09-21T15:49:32;4.40;;;2.10;;
353;SDS011;165;53.592;10.044;2022-09-21T15:52:00;6.37;;;4.90;;
353;SDS011;165;53.592;10.044;2022-09-21T15:54:44;8.50;;;6.77;;
353;SDS011;165;53.592;10.044;2022-09-21T15:57:23;3.27;;;2.57;;
353;SDS011;165;53.592;10.044;2022-09-21T16:00:00;7.37;;;5.77;;
353;SDS011;165;53.592;10.044;2022-09-21T16:02:28;5.27;;;4.27;;
353;SDS011;165;53.592;10.044;2022-09-21T16:05:01;9.07;;;7.30;;
353;SDS011;165;53.592;10.044;2022-09-21T16:07:30;8.07;;;6.13;;
353;SDS011;165;53.592;10.044;2022-09-21T16:09:57;8.53;;;6.73;;
353;SDS011;165;53.592;10.044;2022-09-21T16:12:31;3.50;;;2.93;;
353;SDS011;165;53.592;10.044;2022-09-21T16:15:07;7.90;;;4.43;;
353;SDS011;165;53.592;10.044;2022-09-21T16:17:39;4.77;;;2.13;;
353;SDS011;165;53.592;10.044;2022-09-21T16:20:19;8.70;;;7.43;;
353;SDS011;165;53.592;10.044;2022-09-21T16:22:48;13.53;;;5.80;;
353;SDS011;165;53.592;10.044;2022-09-21T16:25:25;6.03;;;5.20;;
353;SDS011;165;53.592;10.044;2022-09-21T16:27:52;4.90;;;3.67;;
353;SDS011;165;53.592;10.044;2022-09-21T16:38:41;3.30;;;2.23;;
353;SDS011;165;53.592;10.044;2022-09-21T16:41:11;5.23;;;2.80;;
353;SDS011;165;53.592;10.044;2022-09-21T16:43:37;3.07;;;1.80;;
353;SDS011;165;53.592;10.044;2022-09-21T16:46:07;2.63;;;1.90;;
353;SDS011;165;53.592;10.044;2022-09-21T16:48:36;3.83;;;3.47;;
353;SDS011;165;53.592;10.044;2022-09-21T16:51:09;2.23;;;2.00;;
353;SDS011;165;53.592;10.044;2022-09-21T16:53:38;4.33;;;3.63;;
353;SDS011;165;53.592;10.044;2022-09-21T16:56:04;3.97;;;2.70;;
353;SDS011;165;53.592;10.044;2022-09-21T16:58:39;5.50;;;4.23;;
353;SDS011;165;53.592;10.044;2022-09-21T17:01:06;5.40;;;3.67;;
353;SDS011;165;53.592;10.044;2022-09-21T17:03:33;10.13;;;6.10;;
353;SDS011;165;53.592;10.044;2022-09-21T17:05:59;3.33;;;2.80;;
353;SDS011;165;53.592;10.044;2022-09-21T17:08:24;6.03;;;5.40;;
353;SDS011;165;53.592;10.044;2022-09-21T17:10:53;4.70;;;4.23;;
353;SDS011;165;53.592;10.044;2022-09-21T17:13:19;3.33;;;1.50;;
353;SDS011;165;53.592;10.044;2022-09-21T17:15:45;4.17;;;1.47;;
353;SDS011;165;53.592;10.044;2022-09-21T17:18:11;4.20;;;3.40;;
353;SDS011;165;53.592;10.044;2022-09-21T17:20:40;4.70;;;4.30;;
353;SDS011;165;53.592;10.044;2022-09-21T17:23:09;4.57;;;3.90;;
353;SDS011;165;53.592;10.044;2022-09-21T17:25:35;3.37;;;2.23;;
353;SDS011;165;53.592;10.044;2022-09-21T17:28:24;2.87;;;1.70;;
353;SDS011;165;53.592;10.044;2022-09-21T17:30:55;3.70;;;2.10;;
353;SDS011;165;53.592;10.044;2022-09-21T17:46:49;2.80;;;2.13;;
353;SDS011;165;53.592;10.044;2022-09-21T17:49:15;2.63;;;1.70;;
353;SDS011;165;53.592;10.044;2022-09-21T17:51:41;2.27;;;1.33;;
353;SDS011;165;53.592;10.044;2022-09-21T17:54:25;4.40;;;2.57;;
353;SDS011;165;53.592;10.044;2022-09-21T17:56:59;3.00;;;1.87;;
353;SDS011;165;53.592;10.044;2022-09-21T17:59:35;10.60;;;7.07;;
353;SDS011;165;53.592;10.044;2022-09-21T18:02:02;8.27;;;6.27;;
353;SDS011;165;53.592;10.044;2022-09-21T18:04:45;6.20;;;3.00;;
353;SDS011;165;53.592;10.044;2022-09-21T18:07:13;5.40;;;4.47;;
353;SDS011;165;53.592;10.044;2022-09-21T18:09:39;8.40;;;5.83;;
353;SDS011;165;53.592;10.044;2022-09-21T18:12:48;5.77;;;4.40;;
353;SDS011;165;53.592;10.044;2022-09-21T18:15:07;8.30;;;6.20;;
353;SDS011;165;53.592;10.044;2022-09-21T18:23:28;9.97;;;7.70;;
353;SDS011;165;53.592;10.044;2022-09-21T18:25:59;7.30;;;5.00;;
353;SDS011;165;53.592;10.044;2022-09-21T18:36:10;9.00;;;6.10;;
353;SDS011;165;53.592;10.044;2022-09-21T18:41:40;7.13;;;4.50;;
353;SDS011;165;53.592;10.044;2022-09-21T18:44:25;6.40;;;4.00;;
353;SDS011;165;53.592;10.044;2022-09-21T18:47:05;8.40;;;5.43;;
353;SDS011;165;53.592;10.044;2022-09-21T18:49:53;14.50;;;10.03;;
353;SDS011;165;53.592;10.044;2022-09-21T18:52:46;9.37;;;7.00;;
353;SDS011;165;53.592;10.044;2022-09-21T18:55:36;9.63;;;7.20;;
353;SDS011;165;53.592;10.044;2022-09-21T18:58:02;19.73;;;14.63;;
353;SDS011;165;53.592;10.044;2022-09-21T19:00:31;10.87;;;9.87;;
353;SDS011;165;53.592;10.044;2022-09-21T19:03:05;11.03;;;7.07;;
353;SDS011;165;53.592;10.044;2022-09-21T19:05:36;10.90;;;5.67;;
353;SDS011;165;53.592;10.044;2022-09-21T19:08:07;15.33;;;12.40;;
353;SDS011;165;53.592;10.044;2022-09-21T19:10:35;18.30;;;17.20;;
353;SDS011;165;53.592;10.044;2022-09-21T19:16:00;11.70;;;6.27;;
353;SDS011;165;53.592;10.044;2022-09-21T19:18:45;8.63;;;7.07;;
353;SDS011;165;53.592;10.044;2022-09-21T19:24:37;11.17;;;7.17;;
353;SDS011;165;53.592;10.044;2022-09-21T19:27:37;10.70;;;7.10;;
353;SDS011;165;53.592;10.044;2022-09-21T19:32:41;7.40;;;6.30;;
353;SDS011;165;53.592;10.044;2022-09-21T19:35:27;7.97;;;6.37;;
353;SDS011;165;53.592;10.044;2022-09-21T19:37:55;6.90;;;5.93;;
353;SDS011;165;53.592;10.044;2022-09-21T19:40:23;8.70;;;6.37;;
353;SDS011;165;53.592;10.044;2022-09-21T19:42:54;8.30;;;6.87;;
353;SDS011;165;53.592;10.044;2022-09-21T19:48:17;8.83;;;7.97;;
353;SDS011;165;53.592;10.044;2022-09-21T19:50:55;9.73;;;7.63;;
353;SDS011;165;53.592;10.044;2022-09-21T19:53:23;11.13;;;6.67;;
353;SDS011;165;53.592;10.044;2022-09-21T19:56:11;15.93;;;10.03;;
353;SDS011;165;53.592;10.044;2022-09-21T19:58:57;12.47;;;8.77;;